49A

Gilmer County Airport

Ellijay, Georgia, USA
METAR K49A 240435Z AUTO 00000KT 10SM CLR 07/06 A3021 RMK AO2 T00690058
Observed Flight Rules
Oct-24 @ 04:35 UTC (27 minutes ago) Visual Flight Rules
Visibility Clouds
10 miles
  • Clear skies
Temperatures Readings
Current 7°C / 45°F
Dewpoint 6°C / 43°F
Humidity 93%
Altimeter 30.21" Hg
Pressure 1023 hPa
Elevation 453
METAR K49A 240435Z AUTO 00000KT 10SM CLR 07/06 A3021 RMK AO2 T00690058
Observed Flight Rules
Oct-24 @ 04:35 UTC
(27 minutes ago)
VFR
Clouds
  • Clear skies
Temperature Dewpoint
7°C / 45°F 6°C / 43°F
Humidity Altimeter Pressure
93% 30.21" Hg 1023 hPa